sensor_id;sensor_type;location;lat;lon;timestamp;P1;durP1;ratioP1;P2;durP2;ratioP2
51224;SDS011;37298;42.688;23.312;2023-06-10T00:01:29;8.77;;;7.22;;
51224;SDS011;37298;42.688;23.312;2023-06-10T00:03:56;11.02;;;6.10;;
51224;SDS011;37298;42.688;23.312;2023-06-10T00:06:23;8.52;;;5.82;;
51224;SDS011;37298;42.688;23.312;2023-06-10T00:08:49;10.50;;;5.93;;
51224;SDS011;37298;42.688;23.312;2023-06-10T00:11:16;8.80;;;4.88;;
51224;SDS011;37298;42.688;23.312;2023-06-10T00:13:42;7.13;;;5.93;;
51224;SDS011;37298;42.688;23.312;2023-06-10T00:16:08;6.30;;;5.03;;
51224;SDS011;37298;42.688;23.312;2023-06-10T00:18:34;8.80;;;5.63;;
51224;SDS011;37298;42.688;23.312;2023-06-10T00:21:03;9.13;;;5.63;;
51224;SDS011;37298;42.688;23.312;2023-06-10T00:23:30;8.68;;;5.20;;
51224;SDS011;37298;42.688;23.312;2023-06-10T00:25:57;8.65;;;6.05;;
51224;SDS011;37298;42.688;23.312;2023-06-10T00:28:23;9.65;;;5.05;;
51224;SDS011;37298;42.688;23.312;2023-06-10T00:30:50;7.60;;;5.57;;
51224;SDS011;37298;42.688;23.312;2023-06-10T00:33:16;9.68;;;5.85;;
51224;SDS011;37298;42.688;23.312;2023-06-10T00:35:42;8.93;;;5.47;;
51224;SDS011;37298;42.688;23.312;2023-06-10T00:38:09;12.93;;;5.03;;
51224;SDS011;37298;42.688;23.312;2023-06-10T00:40:38;12.60;;;5.78;;
51224;SDS011;37298;42.688;23.312;2023-06-10T00:43:05;7.68;;;5.75;;
51224;SDS011;37298;42.688;23.312;2023-06-10T00:45:31;8.75;;;5.60;;
51224;SDS011;37298;42.688;23.312;2023-06-10T00:47:57;8.55;;;5.00;;
51224;SDS011;37298;42.688;23.312;2023-06-10T00:50:24;6.13;;;5.05;;
51224;SDS011;37298;42.688;23.312;2023-06-10T00:52:51;6.78;;;5.18;;
51224;SDS011;37298;42.688;23.312;2023-06-10T00:55:18;6.22;;;5.03;;
51224;SDS011;37298;42.688;23.312;2023-06-10T00:57:45;6.43;;;4.63;;
51224;SDS011;37298;42.688;23.312;2023-06-10T01:00:14;8.45;;;5.70;;
51224;SDS011;37298;42.688;23.312;2023-06-10T01:02:40;8.68;;;6.32;;
51224;SDS011;37298;42.688;23.312;2023-06-10T01:05:07;9.93;;;6.32;;
51224;SDS011;37298;42.688;23.312;2023-06-10T01:07:37;9.10;;;6.82;;
51224;SDS011;37298;42.688;23.312;2023-06-10T01:12:33;7.90;;;6.47;;
51224;SDS011;37298;42.688;23.312;2023-06-10T01:15:00;10.82;;;6.63;;
51224;SDS011;37298;42.688;23.312;2023-06-10T01:17:28;11.07;;;6.97;;
51224;SDS011;37298;42.688;23.312;2023-06-10T01:19:56;10.40;;;6.45;;
51224;SDS011;37298;42.688;23.312;2023-06-10T01:22:23;10.77;;;7.15;;
51224;SDS011;37298;42.688;23.312;2023-06-10T01:24:51;8.50;;;6.63;;
51224;SDS011;37298;42.688;23.312;2023-06-10T01:27:18;14.60;;;7.45;;
51224;SDS011;37298;42.688;23.312;2023-06-10T01:29:46;18.27;;;11.93;;
51224;SDS011;37298;42.688;23.312;2023-06-10T01:32:19;20.95;;;13.73;;
51224;SDS011;37298;42.688;23.312;2023-06-10T01:34:47;20.90;;;13.30;;
51224;SDS011;37298;42.688;23.312;2023-06-10T01:37:16;30.02;;;16.02;;
51224;SDS011;37298;42.688;23.312;2023-06-10T01:39:44;24.27;;;16.05;;
51224;SDS011;37298;42.688;23.312;2023-06-10T01:42:11;18.05;;;11.32;;
51224;SDS011;37298;42.688;23.312;2023-06-10T01:44:38;10.93;;;8.82;;
51224;SDS011;37298;42.688;23.312;2023-06-10T01:47:04;13.65;;;9.02;;
51224;SDS011;37298;42.688;23.312;2023-06-10T01:49:31;12.98;;;7.75;;
51224;SDS011;37298;42.688;23.312;2023-06-10T01:51:57;9.13;;;7.18;;
51224;SDS011;37298;42.688;23.312;2023-06-10T01:54:23;8.93;;;7.00;;
51224;SDS011;37298;42.688;23.312;2023-06-10T01:56:51;12.27;;;6.50;;
51224;SDS011;37298;42.688;23.312;2023-06-10T01:59:17;7.72;;;6.03;;
51224;SDS011;37298;42.688;23.312;2023-06-10T02:01:43;9.52;;;6.57;;
51224;SDS011;37298;42.688;23.312;2023-06-10T02:04:09;10.07;;;5.47;;
51224;SDS011;37298;42.688;23.312;2023-06-10T02:06:36;8.13;;;6.00;;
51224;SDS011;37298;42.688;23.312;2023-06-10T02:09:03;10.32;;;6.60;;
51224;SDS011;37298;42.688;23.312;2023-06-10T02:11:29;9.98;;;6.20;;
51224;SDS011;37298;42.688;23.312;2023-06-10T02:13:57;8.90;;;6.15;;
51224;SDS011;37298;42.688;23.312;2023-06-10T02:16:23;10.43;;;6.60;;
51224;SDS011;37298;42.688;23.312;2023-06-10T02:18:49;7.65;;;5.70;;
51224;SDS011;37298;42.688;23.312;2023-06-10T02:21:16;8.25;;;5.95;;
51224;SDS011;37298;42.688;23.312;2023-06-10T02:23:42;7.15;;;5.50;;
51224;SDS011;37298;42.688;23.312;2023-06-10T02:26:08;8.82;;;5.40;;
51224;SDS011;37298;42.688;23.312;2023-06-10T02:28:35;6.70;;;5.65;;
51224;SDS011;37298;42.688;23.312;2023-06-10T02:31:02;9.45;;;5.55;;
51224;SDS011;37298;42.688;23.312;2023-06-10T02:33:28;7.88;;;5.45;;
51224;SDS011;37298;42.688;23.312;2023-06-10T02:35:54;10.18;;;5.45;;
51224;SDS011;37298;42.688;23.312;2023-06-10T02:38:22;7.20;;;5.10;;
51224;SDS011;37298;42.688;23.312;2023-06-10T02:40:48;8.27;;;5.95;;
51224;SDS011;37298;42.688;23.312;2023-06-10T02:43:16;7.78;;;5.60;;
51224;SDS011;37298;42.688;23.312;2023-06-10T02:45:43;8.23;;;5.20;;
51224;SDS011;37298;42.688;23.312;2023-06-10T02:48:11;8.90;;;5.25;;
51224;SDS011;37298;42.688;23.312;2023-06-10T02:50:37;8.85;;;5.80;;
51224;SDS011;37298;42.688;23.312;2023-06-10T02:53:16;10.10;;;6.03;;
51224;SDS011;37298;42.688;23.312;2023-06-10T02:55:47;10.20;;;5.30;;
51224;SDS011;37298;42.688;23.312;2023-06-10T03:00:43;7.88;;;5.68;;
51224;SDS011;37298;42.688;23.312;2023-06-10T03:03:12;8.68;;;6.43;;
51224;SDS011;37298;42.688;23.312;2023-06-10T03:05:47;8.20;;;5.90;;
51224;SDS011;37298;42.688;23.312;2023-06-10T03:08:16;9.73;;;6.10;;
51224;SDS011;37298;42.688;23.312;2023-06-10T03:10:43;8.50;;;6.25;;
51224;SDS011;37298;42.688;23.312;2023-06-10T03:13:14;12.38;;;6.88;;
51224;SDS011;37298;42.688;23.312;2023-06-10T03:15:41;9.75;;;6.47;;
51224;SDS011;37298;42.688;23.312;2023-06-10T03:18:10;7.25;;;5.80;;
51224;SDS011;37298;42.688;23.312;2023-06-10T03:20:37;11.13;;;6.20;;
51224;SDS011;37298;42.688;23.312;2023-06-10T03:23:06;9.20;;;7.00;;
51224;SDS011;37298;42.688;23.312;2023-06-10T03:25:33;8.82;;;6.32;;
51224;SDS011;37298;42.688;23.312;2023-06-10T03:27:59;12.00;;;7.25;;
51224;SDS011;37298;42.688;23.312;2023-06-10T03:30:26;10.30;;;7.22;;
51224;SDS011;37298;42.688;23.312;2023-06-10T03:32:53;10.73;;;6.82;;
51224;SDS011;37298;42.688;23.312;2023-06-10T03:35:23;9.27;;;7.18;;
51224;SDS011;37298;42.688;23.312;2023-06-10T03:37:50;11.98;;;6.85;;
51224;SDS011;37298;42.688;23.312;2023-06-10T03:40:17;11.25;;;6.80;;
51224;SDS011;37298;42.688;23.312;2023-06-10T03:42:46;12.75;;;7.00;;
51224;SDS011;37298;42.688;23.312;2023-06-10T03:47:40;9.25;;;5.88;;
51224;SDS011;37298;42.688;23.312;2023-06-10T03:50:10;9.63;;;6.68;;
51224;SDS011;37298;42.688;23.312;2023-06-10T03:52:39;9.77;;;7.55;;
51224;SDS011;37298;42.688;23.312;2023-06-10T03:55:08;14.73;;;6.95;;
51224;SDS011;37298;42.688;23.312;2023-06-10T03:57:34;10.02;;;7.18;;
51224;SDS011;37298;42.688;23.312;2023-06-10T04:00:01;8.27;;;6.90;;
51224;SDS011;37298;42.688;23.312;2023-06-10T04:02:40;8.98;;;7.05;;
51224;SDS011;37298;42.688;23.312;2023-06-10T04:05:12;9.68;;;6.28;;
51224;SDS011;37298;42.688;23.312;2023-06-10T04:07:38;10.27;;;6.90;;
51224;SDS011;37298;42.688;23.312;2023-06-10T04:10:06;14.50;;;7.50;;
51224;SDS011;37298;42.688;23.312;2023-06-10T04:12:34;10.13;;;6.97;;
51224;SDS011;37298;42.688;23.312;2023-06-10T04:15:00;11.90;;;8.32;;
51224;SDS011;37298;42.688;23.312;2023-06-10T04:17:27;9.65;;;7.18;;
51224;SDS011;37298;42.688;23.312;2023-06-10T04:19:53;11.57;;;7.50;;
51224;SDS011;37298;42.688;23.312;2023-06-10T04:22:21;8.32;;;6.47;;
51224;SDS011;37298;42.688;23.312;2023-06-10T04:24:48;9.68;;;6.78;;
51224;SDS011;37298;42.688;23.312;2023-06-10T04:27:14;7.80;;;7.00;;
51224;SDS011;37298;42.688;23.312;2023-06-10T04:29:42;8.82;;;6.90;;
51224;SDS011;37298;42.688;23.312;2023-06-10T04:32:08;15.95;;;6.35;;
51224;SDS011;37298;42.688;23.312;2023-06-10T04:34:35;9.02;;;7.05;;
51224;SDS011;37298;42.688;23.312;2023-06-10T04:37:02;13.18;;;8.18;;
51224;SDS011;37298;42.688;23.312;2023-06-10T04:39:28;11.68;;;7.57;;
51224;SDS011;37298;42.688;23.312;2023-06-10T04:41:56;11.27;;;7.63;;
51224;SDS011;37298;42.688;23.312;2023-06-10T04:44:22;13.35;;;8.15;;
51224;SDS011;37298;42.688;23.312;2023-06-10T04:46:49;10.38;;;7.63;;
51224;SDS011;37298;42.688;23.312;2023-06-10T04:51:43;22.65;;;9.55;;
51224;SDS011;37298;42.688;23.312;2023-06-10T04:54:09;16.48;;;8.07;;
51224;SDS011;37298;42.688;23.312;2023-06-10T04:56:36;14.65;;;7.75;;
51224;SDS011;37298;42.688;23.312;2023-06-10T04:59:02;9.43;;;6.57;;
51224;SDS011;37298;42.688;23.312;2023-06-10T05:01:28;10.25;;;6.40;;
51224;SDS011;37298;42.688;23.312;2023-06-10T05:03:58;10.45;;;6.68;;
51224;SDS011;37298;42.688;23.312;2023-06-10T05:06:24;12.10;;;7.30;;
51224;SDS011;37298;42.688;23.312;2023-06-10T05:08:50;8.45;;;5.68;;
51224;SDS011;37298;42.688;23.312;2023-06-10T05:11:16;6.63;;;5.38;;
51224;SDS011;37298;42.688;23.312;2023-06-10T05:13:43;6.93;;;5.05;;
51224;SDS011;37298;42.688;23.312;2023-06-10T05:16:09;8.32;;;4.85;;
51224;SDS011;37298;42.688;23.312;2023-06-10T05:18:35;6.63;;;4.80;;
51224;SDS011;37298;42.688;23.312;2023-06-10T05:21:03;6.13;;;5.18;;
51224;SDS011;37298;42.688;23.312;2023-06-10T05:23:29;6.95;;;4.50;;
51224;SDS011;37298;42.688;23.312;2023-06-10T05:25:55;6.80;;;4.65;;
51224;SDS011;37298;42.688;23.312;2023-06-10T05:28:22;7.05;;;4.57;;
51224;SDS011;37298;42.688;23.312;2023-06-10T05:30:48;8.55;;;5.30;;
51224;SDS011;37298;42.688;23.312;2023-06-10T05:33:15;12.50;;;5.78;;
51224;SDS011;37298;42.688;23.312;2023-06-10T05:35:41;8.43;;;5.88;;
51224;SDS011;37298;42.688;23.312;2023-06-10T05:38:08;8.27;;;5.75;;
51224;SDS011;37298;42.688;23.312;2023-06-10T05:40:34;13.43;;;6.05;;
51224;SDS011;37298;42.688;23.312;2023-06-10T05:43:01;10.23;;;5.95;;
51224;SDS011;37298;42.688;23.312;2023-06-10T05:45:27;6.97;;;5.47;;
51224;SDS011;37298;42.688;23.312;2023-06-10T05:47:53;9.20;;;6.05;;
51224;SDS011;37298;42.688;23.312;2023-06-10T05:50:20;9.90;;;6.35;;
51224;SDS011;37298;42.688;23.312;2023-06-10T05:52:46;8.27;;;5.97;;
51224;SDS011;37298;42.688;23.312;2023-06-10T05:55:13;7.85;;;6.07;;
51224;SDS011;37298;42.688;23.312;2023-06-10T05:57:41;9.50;;;6.50;;
51224;SDS011;37298;42.688;23.312;2023-06-10T06:00:07;7.70;;;5.07;;
51224;SDS011;37298;42.688;23.312;2023-06-10T06:02:41;8.27;;;5.45;;
51224;SDS011;37298;42.688;23.312;2023-06-10T06:05:07;7.25;;;5.40;;
51224;SDS011;37298;42.688;23.312;2023-06-10T06:07:34;8.57;;;7.07;;
51224;SDS011;37298;42.688;23.312;2023-06-10T06:10:00;17.20;;;12.95;;
51224;SDS011;37298;42.688;23.312;2023-06-10T06:12:27;15.85;;;9.00;;
51224;SDS011;37298;42.688;23.312;2023-06-10T06:14:53;11.80;;;9.15;;
51224;SDS011;37298;42.688;23.312;2023-06-10T06:17:19;16.65;;;9.52;;
51224;SDS011;37298;42.688;23.312;2023-06-10T06:19:46;14.77;;;10.18;;
51224;SDS011;37298;42.688;23.312;2023-06-10T06:22:13;12.60;;;9.38;;
51224;SDS011;37298;42.688;23.312;2023-06-10T06:24:39;10.95;;;9.05;;
51224;SDS011;37298;42.688;23.312;2023-06-10T06:27:05;7.45;;;4.88;;
51224;SDS011;37298;42.688;23.312;2023-06-10T06:29:32;7.60;;;4.97;;
51224;SDS011;37298;42.688;23.312;2023-06-10T06:31:58;7.85;;;5.10;;
51224;SDS011;37298;42.688;23.312;2023-06-10T06:34:25;9.38;;;4.80;;
51224;SDS011;37298;42.688;23.312;2023-06-10T06:36:51;6.53;;;4.97;;
51224;SDS011;37298;42.688;23.312;2023-06-10T06:39:18;6.70;;;4.55;;
51224;SDS011;37298;42.688;23.312;2023-06-10T06:41:44;8.88;;;5.43;;
51224;SDS011;37298;42.688;23.312;2023-06-10T06:44:10;8.88;;;6.30;;
51224;SDS011;37298;42.688;23.312;2023-06-10T06:46:38;8.25;;;5.95;;
51224;SDS011;37298;42.688;23.312;2023-06-10T06:49:05;10.10;;;5.65;;
51224;SDS011;37298;42.688;23.312;2023-06-10T06:51:31;7.95;;;5.15;;
51224;SDS011;37298;42.688;23.312;2023-06-10T06:53:57;11.05;;;6.45;;
51224;SDS011;37298;42.688;23.312;2023-06-10T06:56:24;14.23;;;5.82;;
51224;SDS011;37298;42.688;23.312;2023-06-10T07:08:29;7.95;;;4.97;;
51224;SDS011;37298;42.688;23.312;2023-06-10T07:11:47;7.05;;;5.25;;
51224;SDS011;37298;42.688;23.312;2023-06-10T07:14:37;8.50;;;5.32;;
51224;SDS011;37298;42.688;23.312;2023-06-10T07:17:28;8.63;;;5.15;;
51224;SDS011;37298;42.688;23.312;2023-06-10T07:23:52;19.52;;;7.68;;
51224;SDS011;37298;42.688;23.312;2023-06-10T07:27:22;7.10;;;4.63;;
51224;SDS011;37298;42.688;23.312;2023-06-10T07:30:33;9.20;;;4.32;;
51224;SDS011;37298;42.688;23.312;2023-06-10T07:39:22;7.38;;;4.30;;
51224;SDS011;37298;42.688;23.312;2023-06-10T07:42:26;7.45;;;3.90;;
51224;SDS011;37298;42.688;23.312;2023-06-10T07:48:56;4.10;;;3.28;;
51224;SDS011;37298;42.688;23.312;2023-06-10T07:51:58;5.32;;;3.58;;
51224;SDS011;37298;42.688;23.312;2023-06-10T07:55:07;4.28;;;3.30;;
51224;SDS011;37298;42.688;23.312;2023-06-10T07:57:54;6.25;;;3.30;;
51224;SDS011;37298;42.688;23.312;2023-06-10T08:00:52;6.80;;;3.92;;
51224;SDS011;37298;42.688;23.312;2023-06-10T08:13:58;5.50;;;4.22;;
51224;SDS011;37298;42.688;23.312;2023-06-10T08:23:37;4.90;;;3.45;;
51224;SDS011;37298;42.688;23.312;2023-06-10T08:26:34;6.53;;;4.43;;
51224;SDS011;37298;42.688;23.312;2023-06-10T08:33:18;5.63;;;3.20;;
51224;SDS011;37298;42.688;23.312;2023-06-10T08:39:48;4.93;;;3.58;;
51224;SDS011;37298;42.688;23.312;2023-06-10T08:43:03;9.30;;;3.38;;
51224;SDS011;37298;42.688;23.312;2023-06-10T08:57:00;3.67;;;2.67;;
51224;SDS011;37298;42.688;23.312;2023-06-10T09:03:48;5.00;;;3.10;;
51224;SDS011;37298;42.688;23.312;2023-06-10T09:06:58;9.18;;;3.75;;
51224;SDS011;37298;42.688;23.312;2023-06-10T09:16:53;9.15;;;3.35;;
51224;SDS011;37298;42.688;23.312;2023-06-10T09:28:08;4.18;;;2.90;;
51224;SDS011;37298;42.688;23.312;2023-06-10T09:31:11;4.68;;;3.00;;
51224;SDS011;37298;42.688;23.312;2023-06-10T09:34:42;6.07;;;3.17;;
51224;SDS011;37298;42.688;23.312;2023-06-10T09:41:21;5.53;;;3.63;;
51224;SDS011;37298;42.688;23.312;2023-06-10T09:48:12;6.25;;;3.50;;
51224;SDS011;37298;42.688;23.312;2023-06-10T09:57:53;3.58;;;3.20;;
51224;SDS011;37298;42.688;23.312;2023-06-10T10:01:20;4.40;;;2.90;;
51224;SDS011;37298;42.688;23.312;2023-06-10T10:10:45;4.30;;;2.70;;
51224;SDS011;37298;42.688;23.312;2023-06-10T10:21:05;2.67;;;2.00;;
51224;SDS011;37298;42.688;23.312;2023-06-10T10:31:49;5.03;;;2.60;;
51224;SDS011;37298;42.688;23.312;2023-06-10T10:34:54;2.88;;;2.20;;
51224;SDS011;37298;42.688;23.312;2023-06-10T10:38:47;3.92;;;2.70;;
51224;SDS011;37298;42.688;23.312;2023-06-10T10:41:50;4.18;;;2.30;;
51224;SDS011;37298;42.688;23.312;2023-06-10T10:44:49;4.63;;;2.50;;
51224;SDS011;37298;42.688;23.312;2023-06-10T10:48:07;2.63;;;2.30;;
51224;SDS011;37298;42.688;23.312;2023-06-10T10:51:20;4.18;;;2.22;;
51224;SDS011;37298;42.688;23.312;2023-06-10T10:54:52;4.75;;;2.90;;
51224;SDS011;37298;42.688;23.312;2023-06-10T11:01:29;3.95;;;2.58;;
51224;SDS011;37298;42.688;23.312;2023-06-10T11:04:51;4.80;;;2.85;;
51224;SDS011;37298;42.688;23.312;2023-06-10T11:18:56;4.03;;;2.20;;
51224;SDS011;37298;42.688;23.312;2023-06-10T11:22:55;3.08;;;2.17;;
51224;SDS011;37298;42.688;23.312;2023-06-10T11:29:10;3.60;;;2.80;;
51224;SDS011;37298;42.688;23.312;2023-06-10T11:32:39;4.72;;;2.90;;
51224;SDS011;37298;42.688;23.312;2023-06-10T11:39:09;5.03;;;2.50;;
51224;SDS011;37298;42.688;23.312;2023-06-10T11:45:26;5.28;;;2.92;;
51224;SDS011;37298;42.688;23.312;2023-06-10T11:49:02;5.15;;;3.08;;
51224;SDS011;37298;42.688;23.312;2023-06-10T11:52:03;5.25;;;3.15;;
51224;SDS011;37298;42.688;23.312;2023-06-10T11:55:01;4.88;;;3.17;;
51224;SDS011;37298;42.688;23.312;2023-06-10T12:01:28;3.78;;;2.40;;
51224;SDS011;37298;42.688;23.312;2023-06-10T12:05:01;4.22;;;2.78;;
51224;SDS011;37298;42.688;23.312;2023-06-10T12:15:55;6.13;;;3.45;;
51224;SDS011;37298;42.688;23.312;2023-06-10T12:19:34;4.97;;;2.83;;
51224;SDS011;37298;42.688;23.312;2023-06-10T12:22:43;3.70;;;2.78;;
51224;SDS011;37298;42.688;23.312;2023-06-10T12:25:38;3.60;;;2.78;;
51224;SDS011;37298;42.688;23.312;2023-06-10T12:31:59;2.53;;;2.03;;
51224;SDS011;37298;42.688;23.312;2023-06-10T12:34:29;5.22;;;3.05;;
51224;SDS011;37298;42.688;23.312;2023-06-10T12:36:55;4.80;;;2.90;;
51224;SDS011;37298;42.688;23.312;2023-06-10T12:39:22;6.78;;;3.30;;
51224;SDS011;37298;42.688;23.312;2023-06-10T12:41:48;5.28;;;2.65;;
51224;SDS011;37298;42.688;23.312;2023-06-10T12:44:15;3.88;;;2.80;;
51224;SDS011;37298;42.688;23.312;2023-06-10T12:46:41;5.88;;;2.53;;
51224;SDS011;37298;42.688;23.312;2023-06-10T12:49:08;5.38;;;2.80;;
51224;SDS011;37298;42.688;23.312;2023-06-10T12:51:44;4.25;;;2.60;;
51224;SDS011;37298;42.688;23.312;2023-06-10T12:54:11;4.20;;;2.50;;
51224;SDS011;37298;42.688;23.312;2023-06-10T12:56:38;5.78;;;2.85;;
51224;SDS011;37298;42.688;23.312;2023-06-10T12:59:04;4.57;;;2.88;;
51224;SDS011;37298;42.688;23.312;2023-06-10T13:01:31;4.88;;;2.63;;
51224;SDS011;37298;42.688;23.312;2023-06-10T13:03:58;3.83;;;2.35;;
51224;SDS011;37298;42.688;23.312;2023-06-10T13:06:25;5.88;;;3.40;;
51224;SDS011;37298;42.688;23.312;2023-06-10T13:08:51;6.47;;;2.80;;
51224;SDS011;37298;42.688;23.312;2023-06-10T13:11:17;3.90;;;2.42;;
51224;SDS011;37298;42.688;23.312;2023-06-10T13:13:43;11.05;;;2.60;;
51224;SDS011;37298;42.688;23.312;2023-06-10T13:16:10;4.38;;;2.67;;
51224;SDS011;37298;42.688;23.312;2023-06-10T13:18:36;6.88;;;2.47;;
51224;SDS011;37298;42.688;23.312;2023-06-10T13:21:03;6.25;;;3.53;;
51224;SDS011;37298;42.688;23.312;2023-06-10T13:23:30;5.28;;;2.88;;
51224;SDS011;37298;42.688;23.312;2023-06-10T13:25:57;3.25;;;2.22;;
51224;SDS011;37298;42.688;23.312;2023-06-10T13:28:23;4.93;;;3.20;;
51224;SDS011;37298;42.688;23.312;2023-06-10T13:30:50;7.15;;;3.13;;
51224;SDS011;37298;42.688;23.312;2023-06-10T13:33:16;9.23;;;3.40;;
51224;SDS011;37298;42.688;23.312;2023-06-10T13:35:42;4.95;;;3.30;;
51224;SDS011;37298;42.688;23.312;2023-06-10T13:38:08;4.70;;;3.45;;
51224;SDS011;37298;42.688;23.312;2023-06-10T13:40:35;8.50;;;3.67;;
51224;SDS011;37298;42.688;23.312;2023-06-10T13:43:01;4.80;;;3.50;;
51224;SDS011;37298;42.688;23.312;2023-06-10T13:45:28;5.18;;;3.65;;
51224;SDS011;37298;42.688;23.312;2023-06-10T13:47:54;5.18;;;3.50;;
51224;SDS011;37298;42.688;23.312;2023-06-10T13:50:20;5.07;;;2.92;;
51224;SDS011;37298;42.688;23.312;2023-06-10T13:52:47;8.02;;;3.83;;
51224;SDS011;37298;42.688;23.312;2023-06-10T13:55:13;7.50;;;3.63;;
51224;SDS011;37298;42.688;23.312;2023-06-10T13:57:40;3.95;;;2.90;;
51224;SDS011;37298;42.688;23.312;2023-06-10T14:00:06;4.93;;;3.40;;
51224;SDS011;37298;42.688;23.312;2023-06-10T14:02:33;6.85;;;4.20;;
51224;SDS011;37298;42.688;23.312;2023-06-10T14:04:59;5.05;;;3.67;;
51224;SDS011;37298;42.688;23.312;2023-06-10T14:07:25;5.70;;;3.72;;
51224;SDS011;37298;42.688;23.312;2023-06-10T14:09:52;5.65;;;3.55;;
51224;SDS011;37298;42.688;23.312;2023-06-10T14:12:18;5.03;;;3.47;;
51224;SDS011;37298;42.688;23.312;2023-06-10T14:14:45;4.60;;;3.20;;
51224;SDS011;37298;42.688;23.312;2023-06-10T14:17:11;6.63;;;3.53;;
51224;SDS011;37298;42.688;23.312;2023-06-10T14:19:37;5.38;;;3.70;;
51224;SDS011;37298;42.688;23.312;2023-06-10T14:22:03;10.45;;;3.88;;
51224;SDS011;37298;42.688;23.312;2023-06-10T14:24:29;7.40;;;3.13;;
51224;SDS011;37298;42.688;23.312;2023-06-10T14:26:56;7.65;;;3.10;;
51224;SDS011;37298;42.688;23.312;2023-06-10T14:29:23;4.20;;;3.17;;
51224;SDS011;37298;42.688;23.312;2023-06-10T14:31:53;3.90;;;2.83;;
51224;SDS011;37298;42.688;23.312;2023-06-10T14:34:19;4.65;;;3.38;;
51224;SDS011;37298;42.688;23.312;2023-06-10T14:36:45;7.85;;;4.03;;
51224;SDS011;37298;42.688;23.312;2023-06-10T14:39:12;5.32;;;3.17;;
51224;SDS011;37298;42.688;23.312;2023-06-10T14:41:38;5.55;;;3.00;;
51224;SDS011;37298;42.688;23.312;2023-06-10T14:44:04;7.95;;;2.95;;
51224;SDS011;37298;42.688;23.312;2023-06-10T14:46:30;4.00;;;2.83;;
51224;SDS011;37298;42.688;23.312;2023-06-10T14:48:57;5.18;;;3.17;;
51224;SDS011;37298;42.688;23.312;2023-06-10T14:51:25;3.97;;;3.08;;
51224;SDS011;37298;42.688;23.312;2023-06-10T14:53:51;4.82;;;3.47;;
51224;SDS011;37298;42.688;23.312;2023-06-10T14:56:17;3.70;;;2.67;;
51224;SDS011;37298;42.688;23.312;2023-06-10T14:58:43;4.30;;;2.85;;
51224;SDS011;37298;42.688;23.312;2023-06-10T15:01:09;6.07;;;3.28;;
51224;SDS011;37298;42.688;23.312;2023-06-10T15:03:35;4.72;;;3.13;;
51224;SDS011;37298;42.688;23.312;2023-06-10T15:06:02;6.03;;;3.10;;
51224;SDS011;37298;42.688;23.312;2023-06-10T15:08:29;6.05;;;3.17;;
51224;SDS011;37298;42.688;23.312;2023-06-10T15:10:55;4.35;;;3.13;;
51224;SDS011;37298;42.688;23.312;2023-06-10T15:13:23;4.80;;;2.75;;
51224;SDS011;37298;42.688;23.312;2023-06-10T15:15:49;4.45;;;2.90;;
51224;SDS011;37298;42.688;23.312;2023-06-10T15:18:15;4.65;;;3.60;;
51224;SDS011;37298;42.688;23.312;2023-06-10T15:20:41;4.28;;;3.22;;
51224;SDS011;37298;42.688;23.312;2023-06-10T15:23:08;9.25;;;3.55;;
51224;SDS011;37298;42.688;23.312;2023-06-10T15:25:34;3.95;;;2.90;;
51224;SDS011;37298;42.688;23.312;2023-06-10T15:28:01;4.65;;;3.03;;
51224;SDS011;37298;42.688;23.312;2023-06-10T15:30:27;6.00;;;3.00;;
51224;SDS011;37298;42.688;23.312;2023-06-10T15:32:54;4.85;;;2.90;;
51224;SDS011;37298;42.688;23.312;2023-06-10T15:35:20;3.40;;;2.72;;
51224;SDS011;37298;42.688;23.312;2023-06-10T15:37:47;5.65;;;3.03;;
51224;SDS011;37298;42.688;23.312;2023-06-10T15:40:14;6.53;;;3.38;;
51224;SDS011;37298;42.688;23.312;2023-06-10T15:42:40;3.65;;;3.08;;
51224;SDS011;37298;42.688;23.312;2023-06-10T15:45:07;4.68;;;3.20;;
51224;SDS011;37298;42.688;23.312;2023-06-10T15:47:33;20.63;;;4.88;;
51224;SDS011;37298;42.688;23.312;2023-06-10T15:49:59;4.18;;;3.05;;
51224;SDS011;37298;42.688;23.312;2023-06-10T15:52:25;33.22;;;5.75;;
51224;SDS011;37298;42.688;23.312;2023-06-10T15:54:51;5.85;;;3.15;;
51224;SDS011;37298;42.688;23.312;2023-06-10T15:57:18;5.57;;;3.15;;
51224;SDS011;37298;42.688;23.312;2023-06-10T15:59:45;5.60;;;3.05;;
51224;SDS011;37298;42.688;23.312;2023-06-10T16:02:11;3.35;;;2.55;;
51224;SDS011;37298;42.688;23.312;2023-06-10T16:04:37;3.55;;;3.00;;
51224;SDS011;37298;42.688;23.312;2023-06-10T16:07:04;4.97;;;3.00;;
51224;SDS011;37298;42.688;23.312;2023-06-10T16:09:30;4.13;;;3.10;;
51224;SDS011;37298;42.688;23.312;2023-06-10T16:11:56;5.78;;;3.35;;
51224;SDS011;37298;42.688;23.312;2023-06-10T16:14:23;4.95;;;3.00;;
51224;SDS011;37298;42.688;23.312;2023-06-10T16:16:49;5.85;;;3.03;;
51224;SDS011;37298;42.688;23.312;2023-06-10T16:19:16;4.22;;;3.20;;
51224;SDS011;37298;42.688;23.312;2023-06-10T16:21:42;8.02;;;3.47;;
51224;SDS011;37298;42.688;23.312;2023-06-10T16:24:08;7.78;;;3.55;;
51224;SDS011;37298;42.688;23.312;2023-06-10T16:26:34;6.63;;;3.33;;
51224;SDS011;37298;42.688;23.312;2023-06-10T16:29:01;5.70;;;3.10;;
51224;SDS011;37298;42.688;23.312;2023-06-10T16:31:28;4.50;;;3.08;;
51224;SDS011;37298;42.688;23.312;2023-06-10T16:33:54;3.38;;;3.08;;
51224;SDS011;37298;42.688;23.312;2023-06-10T16:36:20;3.63;;;2.80;;
51224;SDS011;37298;42.688;23.312;2023-06-10T16:38:46;5.03;;;3.60;;
51224;SDS011;37298;42.688;23.312;2023-06-10T16:41:12;5.05;;;3.90;;
51224;SDS011;37298;42.688;23.312;2023-06-10T16:43:38;6.20;;;4.20;;
51224;SDS011;37298;42.688;23.312;2023-06-10T16:46:04;4.47;;;3.22;;
51224;SDS011;37298;42.688;23.312;2023-06-10T16:48:32;5.07;;;3.90;;
51224;SDS011;37298;42.688;23.312;2023-06-10T16:50:58;5.80;;;3.60;;
51224;SDS011;37298;42.688;23.312;2023-06-10T16:53:24;5.35;;;3.95;;
51224;SDS011;37298;42.688;23.312;2023-06-10T16:55:50;7.65;;;4.00;;
51224;SDS011;37298;42.688;23.312;2023-06-10T16:58:16;6.45;;;4.00;;
51224;SDS011;37298;42.688;23.312;2023-06-10T17:00:43;7.82;;;4.25;;
51224;SDS011;37298;42.688;23.312;2023-06-10T17:03:11;7.85;;;4.43;;
51224;SDS011;37298;42.688;23.312;2023-06-10T17:05:38;6.25;;;3.30;;
51224;SDS011;37298;42.688;23.312;2023-06-10T17:08:04;9.52;;;4.40;;
51224;SDS011;37298;42.688;23.312;2023-06-10T17:10:30;5.43;;;4.03;;
51224;SDS011;37298;42.688;23.312;2023-06-10T17:12:57;10.48;;;4.70;;
51224;SDS011;37298;42.688;23.312;2023-06-10T17:15:23;5.78;;;4.22;;
51224;SDS011;37298;42.688;23.312;2023-06-10T17:17:49;11.20;;;4.88;;
51224;SDS011;37298;42.688;23.312;2023-06-10T17:20:15;6.90;;;4.07;;
51224;SDS011;37298;42.688;23.312;2023-06-10T17:22:42;8.80;;;4.05;;
51224;SDS011;37298;42.688;23.312;2023-06-10T17:25:08;10.10;;;4.50;;
51224;SDS011;37298;42.688;23.312;2023-06-10T17:27:35;6.03;;;3.80;;
51224;SDS011;37298;42.688;23.312;2023-06-10T17:30:01;5.00;;;3.47;;
51224;SDS011;37298;42.688;23.312;2023-06-10T17:32:30;10.32;;;3.60;;
51224;SDS011;37298;42.688;23.312;2023-06-10T17:34:58;6.60;;;3.90;;
51224;SDS011;37298;42.688;23.312;2023-06-10T17:37:25;10.38;;;4.70;;
51224;SDS011;37298;42.688;23.312;2023-06-10T17:39:52;5.82;;;3.58;;
51224;SDS011;37298;42.688;23.312;2023-06-10T17:42:18;6.97;;;3.95;;
51224;SDS011;37298;42.688;23.312;2023-06-10T17:44:44;5.57;;;3.92;;
51224;SDS011;37298;42.688;23.312;2023-06-10T17:47:10;4.68;;;3.55;;
51224;SDS011;37298;42.688;23.312;2023-06-10T17:49:36;12.35;;;4.10;;